sensor_id;sensor_type;location;lat;lon;timestamp;pressure;altitude;pressure_sealevel;temperature;humidity
49915;BME280;35806;47.958;13.158;2023-04-22T00:00:19;94199.91;;;8.99;51.52
49915;BME280;35806;47.958;13.158;2023-04-22T00:02:46;94198.14;;;9.03;51.33
49915;BME280;35806;47.958;13.158;2023-04-22T00:05:14;94193.08;;;9.36;50.44
49915;BME280;35806;47.958;13.158;2023-04-22T00:07:41;94195.80;;;9.32;49.53
49915;BME280;35806;47.958;13.158;2023-04-22T00:10:10;94198.04;;;9.28;49.13
49915;BME280;35806;47.958;13.158;2023-04-22T00:12:37;94200.65;;;8.91;49.75
49915;BME280;35806;47.958;13.158;2023-04-22T00:15:06;94198.49;;;8.94;48.51
49915;BME280;35806;47.958;13.158;2023-04-22T00:17:33;94199.54;;;9.02;48.46
49915;BME280;35806;47.958;13.158;2023-04-22T00:20:01;94193.95;;;9.22;48.31
49915;BME280;35806;47.958;13.158;2023-04-22T00:22:28;94195.95;;;8.17;50.07
49915;BME280;35806;47.958;13.158;2023-04-22T00:24:56;94192.81;;;7.94;51.36
49915;BME280;35806;47.958;13.158;2023-04-22T00:27:24;94188.29;;;7.86;52.48
49915;BME280;35806;47.958;13.158;2023-04-22T00:29:51;94188.55;;;8.28;52.41
49915;BME280;35806;47.958;13.158;2023-04-22T00:32:18;94183.84;;;8.91;50.38
49915;BME280;35806;47.958;13.158;2023-04-22T00:34:46;94187.28;;;8.02;51.95
49915;BME280;35806;47.958;13.158;2023-04-22T00:37:13;94189.37;;;8.47;52.18
49915;BME280;35806;47.958;13.158;2023-04-22T00:39:40;94188.62;;;8.20;52.54
49915;BME280;35806;47.958;13.158;2023-04-22T00:42:08;94190.65;;;8.03;52.28
49915;BME280;35806;47.958;13.158;2023-04-22T00:44:35;94187.19;;;9.00;50.97
49915;BME280;35806;47.958;13.158;2023-04-22T00:47:03;94186.29;;;8.33;50.83
49915;BME280;35806;47.958;13.158;2023-04-22T00:49:31;94186.43;;;9.03;48.79
49915;BME280;35806;47.958;13.158;2023-04-22T00:52:01;94190.33;;;8.34;49.46
49915;BME280;35806;47.958;13.158;2023-04-22T00:54:28;94190.57;;;7.88;49.45
49915;BME280;35806;47.958;13.158;2023-04-22T00:56:56;94194.81;;;7.98;50.29
49915;BME280;35806;47.958;13.158;2023-04-22T00:59:25;94192.78;;;8.12;50.37
49915;BME280;35806;47.958;13.158;2023-04-22T01:16:00;94200.34;;;8.01;48.97
49915;BME280;35806;47.958;13.158;2023-04-22T01:18:28;94203.31;;;7.74;49.18
49915;BME280;35806;47.958;13.158;2023-04-22T01:20:56;94212.81;;;7.75;50.48
49915;BME280;35806;47.958;13.158;2023-04-22T01:23:23;94214.25;;;7.67;50.88
49915;BME280;35806;47.958;13.158;2023-04-22T01:25:50;94216.63;;;7.34;51.38
49915;BME280;35806;47.958;13.158;2023-04-22T01:28:17;94215.94;;;7.19;53.10
49915;BME280;35806;47.958;13.158;2023-04-22T01:30:45;94213.79;;;7.28;53.39
49915;BME280;35806;47.958;13.158;2023-04-22T01:33:15;94214.71;;;7.50;53.88
49915;BME280;35806;47.958;13.158;2023-04-22T01:35:43;94213.56;;;7.30;53.22
49915;BME280;35806;47.958;13.158;2023-04-22T01:38:12;94221.91;;;7.70;52.30
49915;BME280;35806;47.958;13.158;2023-04-22T01:40:39;94225.43;;;7.77;52.34
49915;BME280;35806;47.958;13.158;2023-04-22T01:43:06;94223.46;;;6.67;54.54
49915;BME280;35806;47.958;13.158;2023-04-22T01:45:34;94223.31;;;6.95;53.89
49915;BME280;35806;47.958;13.158;2023-04-22T01:48:03;94222.83;;;7.40;53.17
49915;BME280;35806;47.958;13.158;2023-04-22T01:50:30;94220.75;;;7.56;52.25
49915;BME280;35806;47.958;13.158;2023-04-22T01:52:58;94218.99;;;7.89;51.46
49915;BME280;35806;47.958;13.158;2023-04-22T01:55:25;94220.17;;;7.32;52.20
49915;BME280;35806;47.958;13.158;2023-04-22T01:57:53;94220.62;;;7.87;50.33
49915;BME280;35806;47.958;13.158;2023-04-22T02:00:20;94222.29;;;6.69;53.46
49915;BME280;35806;47.958;13.158;2023-04-22T02:02:47;94224.26;;;7.17;50.91
49915;BME280;35806;47.958;13.158;2023-04-22T02:05:14;94221.36;;;6.11;51.27
49915;BME280;35806;47.958;13.158;2023-04-22T02:07:41;94218.53;;;6.67;51.90
49915;BME280;35806;47.958;13.158;2023-04-22T02:10:09;94214.95;;;6.88;51.62
49915;BME280;35806;47.958;13.158;2023-04-22T02:12:36;94212.19;;;6.95;52.47
49915;BME280;35806;47.958;13.158;2023-04-22T02:15:04;94213.90;;;7.31;51.77
49915;BME280;35806;47.958;13.158;2023-04-22T02:17:32;94209.67;;;6.50;52.88
49915;BME280;35806;47.958;13.158;2023-04-22T02:19:59;94210.60;;;6.46;52.95
49915;BME280;35806;47.958;13.158;2023-04-22T02:22:27;94209.85;;;6.93;51.92
49915;BME280;35806;47.958;13.158;2023-04-22T02:24:55;94215.72;;;7.34;50.10
49915;BME280;35806;47.958;13.158;2023-04-22T02:27:22;94216.41;;;7.21;51.64
49915;BME280;35806;47.958;13.158;2023-04-22T02:29:50;94212.88;;;6.28;53.19
49915;BME280;35806;47.958;13.158;2023-04-22T02:32:16;94211.36;;;6.62;53.64
49915;BME280;35806;47.958;13.158;2023-04-22T02:34:48;94212.68;;;6.96;52.91
49915;BME280;35806;47.958;13.158;2023-04-22T02:37:16;94215.15;;;6.87;53.35
49915;BME280;35806;47.958;13.158;2023-04-22T02:39:43;94218.27;;;7.26;51.90
49915;BME280;35806;47.958;13.158;2023-04-22T02:42:11;94217.57;;;7.11;50.72
49915;BME280;35806;47.958;13.158;2023-04-22T02:44:38;94218.84;;;7.10;51.14
49915;BME280;35806;47.958;13.158;2023-04-22T02:47:05;94219.77;;;6.91;51.01
49915;BME280;35806;47.958;13.158;2023-04-22T02:49:33;94220.01;;;6.56;52.22
49915;BME280;35806;47.958;13.158;2023-04-22T02:52:06;94220.78;;;7.05;52.21
49915;BME280;35806;47.958;13.158;2023-04-22T02:54:33;94218.40;;;6.54;52.56
49915;BME280;35806;47.958;13.158;2023-04-22T02:57:00;94219.46;;;6.58;52.94
49915;BME280;35806;47.958;13.158;2023-04-22T02:59:28;94214.88;;;6.97;51.75
49915;BME280;35806;47.958;13.158;2023-04-22T03:01:55;94212.06;;;6.76;51.05
49915;BME280;35806;47.958;13.158;2023-04-22T03:04:22;94211.47;;;6.76;51.28
49915;BME280;35806;47.958;13.158;2023-04-22T03:06:49;94208.46;;;6.67;51.35
49915;BME280;35806;47.958;13.158;2023-04-22T03:09:16;94206.78;;;6.37;52.40
49915;BME280;35806;47.958;13.158;2023-04-22T03:11:44;94202.17;;;6.18;53.84
49915;BME280;35806;47.958;13.158;2023-04-22T03:14:11;94204.69;;;6.15;53.57
49915;BME280;35806;47.958;13.158;2023-04-22T03:16:38;94205.29;;;6.55;52.95
49915;BME280;35806;47.958;13.158;2023-04-22T03:19:06;94205.30;;;6.05;53.45
49915;BME280;35806;47.958;13.158;2023-04-22T03:21:34;94207.66;;;6.38;52.82
49915;BME280;35806;47.958;13.158;2023-04-22T03:24:02;94209.02;;;6.30;53.40
49915;BME280;35806;47.958;13.158;2023-04-22T03:26:29;94211.37;;;6.40;53.26
49915;BME280;35806;47.958;13.158;2023-04-22T03:28:57;94211.07;;;6.45;52.95
49915;BME280;35806;47.958;13.158;2023-04-22T03:31:24;94209.36;;;6.49;53.01
49915;BME280;35806;47.958;13.158;2023-04-22T03:33:52;94208.81;;;6.70;53.02
49915;BME280;35806;47.958;13.158;2023-04-22T03:36:19;94209.34;;;6.89;52.34
49915;BME280;35806;47.958;13.158;2023-04-22T03:38:46;94204.79;;;6.57;51.97
49915;BME280;35806;47.958;13.158;2023-04-22T03:41:13;94208.74;;;6.68;51.73
49915;BME280;35806;47.958;13.158;2023-04-22T03:43:40;94208.13;;;6.60;51.67
49915;BME280;35806;47.958;13.158;2023-04-22T03:46:07;94209.99;;;6.51;51.76
49915;BME280;35806;47.958;13.158;2023-04-22T03:48:35;94209.01;;;6.58;51.76
49915;BME280;35806;47.958;13.158;2023-04-22T03:51:03;94209.54;;;6.75;51.09
49915;BME280;35806;47.958;13.158;2023-04-22T03:53:30;94211.35;;;6.41;51.87
49915;BME280;35806;47.958;13.158;2023-04-22T03:55:58;94208.74;;;6.59;51.18
49915;BME280;35806;47.958;13.158;2023-04-22T03:58:31;94210.36;;;6.30;52.44
49915;BME280;35806;47.958;13.158;2023-04-22T04:00:58;94209.59;;;6.45;52.01
49915;BME280;35806;47.958;13.158;2023-04-22T04:03:25;94211.33;;;6.55;51.84
49915;BME280;35806;47.958;13.158;2023-04-22T04:05:52;94211.79;;;6.34;51.33
49915;BME280;35806;47.958;13.158;2023-04-22T04:08:20;94214.48;;;5.99;52.84
49915;BME280;35806;47.958;13.158;2023-04-22T04:10:48;94214.65;;;5.80;54.10
49915;BME280;35806;47.958;13.158;2023-04-22T04:13:15;94217.89;;;6.03;53.50
49915;BME280;35806;47.958;13.158;2023-04-22T04:15:42;94219.33;;;6.51;54.25
49915;BME280;35806;47.958;13.158;2023-04-22T04:18:09;94219.32;;;6.12;53.55
49915;BME280;35806;47.958;13.158;2023-04-22T04:20:37;94219.50;;;5.98;53.74
49915;BME280;35806;47.958;13.158;2023-04-22T04:23:04;94220.23;;;6.09;52.99
49915;BME280;35806;47.958;13.158;2023-04-22T04:25:32;94221.92;;;6.10;53.83
49915;BME280;35806;47.958;13.158;2023-04-22T04:28:00;94220.58;;;6.64;53.21
49915;BME280;35806;47.958;13.158;2023-04-22T04:30:27;94218.54;;;6.40;54.17
49915;BME280;35806;47.958;13.158;2023-04-22T04:32:54;94218.53;;;6.59;54.35
49915;BME280;35806;47.958;13.158;2023-04-22T04:35:21;94218.71;;;6.73;53.33
49915;BME280;35806;47.958;13.158;2023-04-22T04:37:48;94220.52;;;6.92;53.03
49915;BME280;35806;47.958;13.158;2023-04-22T04:40:15;94222.89;;;6.95;53.33
49915;BME280;35806;47.958;13.158;2023-04-22T04:42:43;94221.74;;;6.96;53.64
49915;BME280;35806;47.958;13.158;2023-04-22T04:45:10;94220.90;;;5.99;56.05
49915;BME280;35806;47.958;13.158;2023-04-22T04:47:38;94222.83;;;6.83;54.50
49915;BME280;35806;47.958;13.158;2023-04-22T04:50:06;94223.49;;;7.66;52.29
49915;BME280;35806;47.958;13.158;2023-04-22T04:52:34;94225.82;;;7.89;52.09
49915;BME280;35806;47.958;13.158;2023-04-22T04:55:02;94225.36;;;7.43;52.94
49915;BME280;35806;47.958;13.158;2023-04-22T04:57:30;94224.73;;;7.62;52.04
49915;BME280;35806;47.958;13.158;2023-04-22T04:59:57;94227.54;;;7.36;52.63
49915;BME280;35806;47.958;13.158;2023-04-22T05:02:24;94227.62;;;7.96;51.87
49915;BME280;35806;47.958;13.158;2023-04-22T05:04:51;94228.34;;;7.75;51.84
49915;BME280;35806;47.958;13.158;2023-04-22T05:07:20;94223.52;;;8.13;52.00
49915;BME280;35806;47.958;13.158;2023-04-22T05:09:47;94224.08;;;8.37;52.19
49915;BME280;35806;47.958;13.158;2023-04-22T05:12:14;94225.76;;;8.02;52.04
49915;BME280;35806;47.958;13.158;2023-04-22T05:14:42;94223.89;;;8.69;51.14
49915;BME280;35806;47.958;13.158;2023-04-22T05:17:09;94225.66;;;8.46;51.92
49915;BME280;35806;47.958;13.158;2023-04-22T05:19:37;94224.85;;;8.91;51.43
49915;BME280;35806;47.958;13.158;2023-04-22T05:22:03;94226.53;;;9.05;51.65
49915;BME280;35806;47.958;13.158;2023-04-22T05:24:30;94225.20;;;8.77;52.84
49915;BME280;35806;47.958;13.158;2023-04-22T05:26:58;94223.08;;;9.11;52.66
49915;BME280;35806;47.958;13.158;2023-04-22T05:29:26;94223.05;;;9.34;51.74
49915;BME280;35806;47.958;13.158;2023-04-22T05:31:53;94224.25;;;9.00;51.92
49915;BME280;35806;47.958;13.158;2023-04-22T05:34:20;94221.71;;;9.45;51.08
49915;BME280;35806;47.958;13.158;2023-04-22T05:36:48;94221.85;;;9.40;51.85
49915;BME280;35806;47.958;13.158;2023-04-22T05:39:15;94220.31;;;9.13;52.30
49915;BME280;35806;47.958;13.158;2023-04-22T05:41:42;94221.55;;;10.16;50.08
49915;BME280;35806;47.958;13.158;2023-04-22T05:44:10;94226.93;;;10.13;50.77
49915;BME280;35806;47.958;13.158;2023-04-22T05:46:37;94226.11;;;10.14;51.01
49915;BME280;35806;47.958;13.158;2023-04-22T05:49:04;94229.36;;;10.22;51.14
49915;BME280;35806;47.958;13.158;2023-04-22T05:51:32;94229.59;;;10.68;50.60
49915;BME280;35806;47.958;13.158;2023-04-22T05:53:59;94227.48;;;10.81;50.34
49915;BME280;35806;47.958;13.158;2023-04-22T05:56:27;94228.28;;;11.10;50.19
49915;BME280;35806;47.958;13.158;2023-04-22T05:58:54;94227.61;;;11.48;49.31
49915;BME280;35806;47.958;13.158;2023-04-22T06:01:21;94228.36;;;12.10;47.17
49915;BME280;35806;47.958;13.158;2023-04-22T06:03:49;94227.66;;;12.11;45.89
49915;BME280;35806;47.958;13.158;2023-04-22T06:06:16;94226.20;;;12.58;44.52
49915;BME280;35806;47.958;13.158;2023-04-22T06:08:44;94226.59;;;11.93;45.79
49915;BME280;35806;47.958;13.158;2023-04-22T06:11:11;94227.38;;;12.97;44.15
49915;BME280;35806;47.958;13.158;2023-04-22T06:13:39;94230.48;;;13.27;43.26
49915;BME280;35806;47.958;13.158;2023-04-22T06:16:07;94233.10;;;13.49;43.34
49915;BME280;35806;47.958;13.158;2023-04-22T06:18:35;94230.77;;;13.20;43.32
49915;BME280;35806;47.958;13.158;2023-04-22T06:21:03;94234.71;;;13.40;41.51
49915;BME280;35806;47.958;13.158;2023-04-22T06:23:30;94233.46;;;13.21;43.50
49915;BME280;35806;47.958;13.158;2023-04-22T06:25:57;94235.99;;;12.92;43.21
49915;BME280;35806;47.958;13.158;2023-04-22T06:28:25;94232.71;;;13.90;41.53
49915;BME280;35806;47.958;13.158;2023-04-22T06:30:52;94231.83;;;13.94;41.59
49915;BME280;35806;47.958;13.158;2023-04-22T06:33:20;94231.73;;;13.77;42.70
49915;BME280;35806;47.958;13.158;2023-04-22T06:35:47;94229.27;;;14.55;41.41
49915;BME280;35806;47.958;13.158;2023-04-22T06:38:15;94231.51;;;14.30;39.13
49915;BME280;35806;47.958;13.158;2023-04-22T06:40:42;94229.75;;;15.27;39.06
49915;BME280;35806;47.958;13.158;2023-04-22T06:43:10;94230.31;;;15.29;38.11
49915;BME280;35806;47.958;13.158;2023-04-22T06:45:37;94229.72;;;14.85;38.88
49915;BME280;35806;47.958;13.158;2023-04-22T06:48:04;94233.24;;;15.45;38.36
49915;BME280;35806;47.958;13.158;2023-04-22T06:50:31;94231.17;;;15.32;38.39
49915;BME280;35806;47.958;13.158;2023-04-22T06:52:59;94230.33;;;16.61;36.25
49915;BME280;35806;47.958;13.158;2023-04-22T06:55:27;94232.77;;;16.37;35.24
49915;BME280;35806;47.958;13.158;2023-04-22T06:57:54;94233.89;;;16.62;35.06
49915;BME280;35806;47.958;13.158;2023-04-22T07:00:21;94235.42;;;16.97;34.25
49915;BME280;35806;47.958;13.158;2023-04-22T07:02:49;94234.59;;;16.69;34.25
49915;BME280;35806;47.958;13.158;2023-04-22T07:05:17;94235.46;;;16.66;34.38
49915;BME280;35806;47.958;13.158;2023-04-22T07:07:44;94235.65;;;17.08;33.95
49915;BME280;35806;47.958;13.158;2023-04-22T07:10:12;94234.02;;;17.67;34.29
49915;BME280;35806;47.958;13.158;2023-04-22T07:12:39;94235.10;;;17.94;33.42
49915;BME280;35806;47.958;13.158;2023-04-22T07:15:07;94234.25;;;17.80;33.21
49915;BME280;35806;47.958;13.158;2023-04-22T07:17:34;94235.92;;;18.42;33.55
49915;BME280;35806;47.958;13.158;2023-04-22T07:20:02;94237.24;;;18.43;33.50
49915;BME280;35806;47.958;13.158;2023-04-22T07:22:30;94236.66;;;18.11;34.78
49915;BME280;35806;47.958;13.158;2023-04-22T07:24:57;94236.04;;;18.62;33.96
49915;BME280;35806;47.958;13.158;2023-04-22T07:27:25;94236.59;;;18.36;32.36
49915;BME280;35806;47.958;13.158;2023-04-22T07:29:52;94230.91;;;19.16;31.75
49915;BME280;35806;47.958;13.158;2023-04-22T07:32:20;94235.54;;;18.31;33.52
49915;BME280;35806;47.958;13.158;2023-04-22T07:34:47;94231.75;;;18.71;33.35
49915;BME280;35806;47.958;13.158;2023-04-22T07:37:15;94235.42;;;18.31;33.38
49915;BME280;35806;47.958;13.158;2023-04-22T07:39:42;94233.29;;;18.80;33.29
49915;BME280;35806;47.958;13.158;2023-04-22T07:42:09;94230.62;;;19.31;32.52
49915;BME280;35806;47.958;13.158;2023-04-22T07:44:37;94231.49;;;19.39;31.87
49915;BME280;35806;47.958;13.158;2023-04-22T07:47:04;94233.30;;;18.36;32.86
49915;BME280;35806;47.958;13.158;2023-04-22T07:49:31;94234.75;;;19.28;31.89
49915;BME280;35806;47.958;13.158;2023-04-22T07:51:58;94239.42;;;20.13;31.61
49915;BME280;35806;47.958;13.158;2023-04-22T07:54:26;94240.88;;;20.29;31.52
49915;BME280;35806;47.958;13.158;2023-04-22T07:56:53;94239.84;;;20.63;30.74
49915;BME280;35806;47.958;13.158;2023-04-22T07:59:20;94240.92;;;20.60;30.84
49915;BME280;35806;47.958;13.158;2023-04-22T08:01:48;94242.97;;;21.18;29.30
49915;BME280;35806;47.958;13.158;2023-04-22T08:04:16;94244.72;;;20.72;28.86
49915;BME280;35806;47.958;13.158;2023-04-22T08:06:43;94250.16;;;20.72;29.00
49915;BME280;35806;47.958;13.158;2023-04-22T08:09:10;94249.08;;;21.21;27.95
49915;BME280;35806;47.958;13.158;2023-04-22T08:11:38;94247.09;;;21.92;27.56
49915;BME280;35806;47.958;13.158;2023-04-22T08:14:05;94245.52;;;22.21;26.70
49915;BME280;35806;47.958;13.158;2023-04-22T08:16:33;94242.72;;;21.70;26.05
49915;BME280;35806;47.958;13.158;2023-04-22T08:19:00;94244.02;;;21.96;25.98
49915;BME280;35806;47.958;13.158;2023-04-22T08:21:27;94241.37;;;22.14;26.02
49915;BME280;35806;47.958;13.158;2023-04-22T08:24:16;94243.57;;;22.47;25.29
49915;BME280;35806;47.958;13.158;2023-04-22T08:27:00;94245.13;;;22.67;25.52
49915;BME280;35806;47.958;13.158;2023-04-22T08:29:32;94243.88;;;23.17;24.98
49915;BME280;35806;47.958;13.158;2023-04-22T08:32:01;94247.89;;;22.25;27.18
49915;BME280;35806;47.958;13.158;2023-04-22T08:34:29;94248.68;;;22.36;27.47
49915;BME280;35806;47.958;13.158;2023-04-22T08:36:56;94246.26;;;22.31;27.14
49915;BME280;35806;47.958;13.158;2023-04-22T08:39:24;94247.56;;;22.15;26.56
49915;BME280;35806;47.958;13.158;2023-04-22T08:41:52;94248.24;;;21.95;26.35
49915;BME280;35806;47.958;13.158;2023-04-22T08:44:21;94245.70;;;21.96;26.19
49915;BME280;35806;47.958;13.158;2023-04-22T08:46:48;94244.15;;;22.03;26.26
49915;BME280;35806;47.958;13.158;2023-04-22T08:49:17;94243.75;;;21.64;25.95
49915;BME280;35806;47.958;13.158;2023-04-22T08:51:45;94244.95;;;22.06;26.93
49915;BME280;35806;47.958;13.158;2023-04-22T08:54:12;94247.09;;;20.85;28.44
49915;BME280;35806;47.958;13.158;2023-04-22T08:56:42;94245.77;;;21.83;27.08
49915;BME280;35806;47.958;13.158;2023-04-22T08:59:10;94249.68;;;20.95;26.88
49915;BME280;35806;47.958;13.158;2023-04-22T09:01:39;94248.48;;;20.79;26.77
49915;BME280;35806;47.958;13.158;2023-04-22T09:04:08;94247.07;;;20.63;26.86
49915;BME280;35806;47.958;13.158;2023-04-22T09:06:37;94243.22;;;20.88;26.40
49915;BME280;35806;47.958;13.158;2023-04-22T09:09:05;94244.10;;;21.21;26.50
49915;BME280;35806;47.958;13.158;2023-04-22T09:11:32;94237.43;;;21.57;28.04
49915;BME280;35806;47.958;13.158;2023-04-22T09:13:59;94234.52;;;22.77;25.28
49915;BME280;35806;47.958;13.158;2023-04-22T09:16:29;94235.96;;;22.60;23.78
49915;BME280;35806;47.958;13.158;2023-04-22T09:18:57;94235.63;;;22.44;24.09
49915;BME280;35806;47.958;13.158;2023-04-22T09:21:24;94233.85;;;23.35;23.70
49915;BME280;35806;47.958;13.158;2023-04-22T09:23:54;94228.68;;;23.19;24.12
49915;BME280;35806;47.958;13.158;2023-04-22T09:26:21;94230.42;;;22.61;25.86
49915;BME280;35806;47.958;13.158;2023-04-22T09:28:50;94228.69;;;22.86;24.42
49915;BME280;35806;47.958;13.158;2023-04-22T09:31:18;94223.62;;;23.70;22.66
49915;BME280;35806;47.958;13.158;2023-04-22T09:33:48;94225.10;;;22.89;22.80
49915;BME280;35806;47.958;13.158;2023-04-22T09:36:16;94226.42;;;22.49;23.52
49915;BME280;35806;47.958;13.158;2023-04-22T09:38:52;94222.43;;;21.97;25.02
49915;BME280;35806;47.958;13.158;2023-04-22T09:41:26;94226.32;;;21.89;24.31
49915;BME280;35806;47.958;13.158;2023-04-22T09:43:55;94225.49;;;21.76;25.92
49915;BME280;35806;47.958;13.158;2023-04-22T09:46:24;94225.53;;;21.97;24.26
49915;BME280;35806;47.958;13.158;2023-04-22T09:48:53;94223.93;;;22.11;21.91
49915;BME280;35806;47.958;13.158;2023-04-22T09:51:21;94225.08;;;21.86;23.36
49915;BME280;35806;47.958;13.158;2023-04-22T09:54:00;94221.90;;;22.82;23.78
49915;BME280;35806;47.958;13.158;2023-04-22T09:56:45;94219.24;;;22.94;22.74
49915;BME280;35806;47.958;13.158;2023-04-22T09:59:23;94215.81;;;22.91;24.16
49915;BME280;35806;47.958;13.158;2023-04-22T10:01:51;94213.26;;;24.32;21.44
49915;BME280;35806;47.958;13.158;2023-04-22T10:04:19;94211.67;;;24.20;20.45
49915;BME280;35806;47.958;13.158;2023-04-22T10:06:47;94211.24;;;24.63;21.04
49915;BME280;35806;47.958;13.158;2023-04-22T10:09:15;94206.49;;;24.04;19.30
49915;BME280;35806;47.958;13.158;2023-04-22T10:11:43;94202.85;;;24.85;20.56
49915;BME280;35806;47.958;13.158;2023-04-22T10:14:11;94205.09;;;24.61;21.27
49915;BME280;35806;47.958;13.158;2023-04-22T10:16:39;94206.25;;;24.63;19.47
49915;BME280;35806;47.958;13.158;2023-04-22T10:19:11;94204.93;;;24.24;17.99
49915;BME280;35806;47.958;13.158;2023-04-22T10:21:40;94203.28;;;24.37;18.12
49915;BME280;35806;47.958;13.158;2023-04-22T10:24:14;94200.91;;;24.70;22.27
49915;BME280;35806;47.958;13.158;2023-04-22T10:26:47;94202.92;;;25.79;21.20
49915;BME280;35806;47.958;13.158;2023-04-22T10:29:16;94203.52;;;26.53;20.77
49915;BME280;35806;47.958;13.158;2023-04-22T10:31:44;94203.41;;;26.89;21.69
49915;BME280;35806;47.958;13.158;2023-04-22T10:34:17;94203.47;;;26.47;21.88
49915;BME280;35806;47.958;13.158;2023-04-22T10:37:05;94205.96;;;25.08;20.45
49915;BME280;35806;47.958;13.158;2023-04-22T10:39:32;94204.96;;;25.55;23.47
49915;BME280;35806;47.958;13.158;2023-04-22T10:42:10;94201.41;;;25.28;21.68
49915;BME280;35806;47.958;13.158;2023-04-22T10:44:46;94197.51;;;26.08;21.14
49915;BME280;35806;47.958;13.158;2023-04-22T10:47:24;94193.93;;;26.61;20.56
49915;BME280;35806;47.958;13.158;2023-04-22T10:50:07;94193.25;;;26.28;17.93
49915;BME280;35806;47.958;13.158;2023-04-22T10:52:35;94192.16;;;25.70;19.25
49915;BME280;35806;47.958;13.158;2023-04-22T10:55:03;94192.38;;;25.79;20.71
49915;BME280;35806;47.958;13.158;2023-04-22T10:57:34;94190.15;;;26.41;21.75
49915;BME280;35806;47.958;13.158;2023-04-22T11:00:24;94185.10;;;26.04;21.87
49915;BME280;35806;47.958;13.158;2023-04-22T11:02:54;94181.87;;;26.59;19.40
49915;BME280;35806;47.958;13.158;2023-04-22T11:05:33;94182.29;;;26.41;19.65
49915;BME280;35806;47.958;13.158;2023-04-22T11:08:02;94184.63;;;25.91;19.76
49915;BME280;35806;47.958;13.158;2023-04-22T11:10:33;94184.78;;;26.36;18.22
49915;BME280;35806;47.958;13.158;2023-04-22T11:13:01;94188.30;;;26.13;17.49
49915;BME280;35806;47.958;13.158;2023-04-22T11:15:29;94185.08;;;25.62;19.36
49915;BME280;35806;47.958;13.158;2023-04-22T11:17:57;94184.10;;;26.40;19.11
49915;BME280;35806;47.958;13.158;2023-04-22T11:20:24;94182.96;;;26.41;19.02
49915;BME280;35806;47.958;13.158;2023-04-22T11:22:53;94179.30;;;26.90;18.67
49915;BME280;35806;47.958;13.158;2023-04-22T11:25:21;94182.38;;;26.38;19.64
49915;BME280;35806;47.958;13.158;2023-04-22T11:27:49;94177.90;;;26.04;19.46
49915;BME280;35806;47.958;13.158;2023-04-22T11:30:18;94175.80;;;25.70;19.71
49915;BME280;35806;47.958;13.158;2023-04-22T11:32:47;94174.32;;;25.86;20.08
49915;BME280;35806;47.958;13.158;2023-04-22T11:35:17;94173.86;;;26.17;18.61
49915;BME280;35806;47.958;13.158;2023-04-22T11:37:46;94167.27;;;26.22;18.52
49915;BME280;35806;47.958;13.158;2023-04-22T11:40:16;94163.33;;;26.98;17.60
49915;BME280;35806;47.958;13.158;2023-04-22T11:42:43;94162.05;;;27.42;17.11
49915;BME280;35806;47.958;13.158;2023-04-22T11:45:11;94165.28;;;26.52;19.41
49915;BME280;35806;47.958;13.158;2023-04-22T11:47:39;94160.66;;;27.55;15.15
49915;BME280;35806;47.958;13.158;2023-04-22T11:50:09;94164.15;;;26.82;17.18
49915;BME280;35806;47.958;13.158;2023-04-22T11:52:46;94160.79;;;27.45;17.17
49915;BME280;35806;47.958;13.158;2023-04-22T11:55:14;94163.89;;;25.57;19.68
49915;BME280;35806;47.958;13.158;2023-04-22T11:57:43;94167.76;;;24.72;20.34
49915;BME280;35806;47.958;13.158;2023-04-22T12:00:13;94164.04;;;25.18;21.35
49915;BME280;35806;47.958;13.158;2023-04-22T12:02:41;94156.71;;;25.95;19.82
49915;BME280;35806;47.958;13.158;2023-04-22T12:05:09;94161.02;;;26.33;19.44
49915;BME280;35806;47.958;13.158;2023-04-22T12:07:37;94161.72;;;26.69;18.85
49915;BME280;35806;47.958;13.158;2023-04-22T12:10:05;94161.71;;;26.12;21.17
49915;BME280;35806;47.958;13.158;2023-04-22T12:12:32;94163.01;;;26.10;18.21
49915;BME280;35806;47.958;13.158;2023-04-22T12:15:07;94162.07;;;26.32;19.55
49915;BME280;35806;47.958;13.158;2023-04-22T12:17:34;94158.77;;;26.59;19.77
49915;BME280;35806;47.958;13.158;2023-04-22T12:20:03;94164.10;;;26.40;18.79
49915;BME280;35806;47.958;13.158;2023-04-22T12:22:30;94159.78;;;25.70;18.90
49915;BME280;35806;47.958;13.158;2023-04-22T12:24:58;94159.56;;;25.98;21.06
49915;BME280;35806;47.958;13.158;2023-04-22T12:27:26;94156.83;;;26.80;18.50
49915;BME280;35806;47.958;13.158;2023-04-22T12:29:55;94152.06;;;27.76;17.69
49915;BME280;35806;47.958;13.158;2023-04-22T12:32:24;94151.20;;;26.97;19.52
49915;BME280;35806;47.958;13.158;2023-04-22T12:34:52;94150.21;;;26.88;19.70
49915;BME280;35806;47.958;13.158;2023-04-22T12:37:19;94148.93;;;26.83;18.14
49915;BME280;35806;47.958;13.158;2023-04-22T12:39:46;94148.15;;;27.44;18.15
49915;BME280;35806;47.958;13.158;2023-04-22T12:42:14;94148.05;;;26.18;16.13
49915;BME280;35806;47.958;13.158;2023-04-22T12:44:41;94143.09;;;27.38;15.31
49915;BME280;35806;47.958;13.158;2023-04-22T12:47:09;94141.98;;;27.44;14.23
49915;BME280;35806;47.958;13.158;2023-04-22T12:49:36;94138.52;;;28.20;13.61
49915;BME280;35806;47.958;13.158;2023-04-22T12:52:04;94138.74;;;27.39;14.23
49915;BME280;35806;47.958;13.158;2023-04-22T12:54:31;94138.17;;;26.50;17.40
49915;BME280;35806;47.958;13.158;2023-04-22T12:56:58;94139.70;;;26.68;16.35
49915;BME280;35806;47.958;13.158;2023-04-22T12:59:26;94139.74;;;26.05;17.25
49915;BME280;35806;47.958;13.158;2023-04-22T13:01:54;94136.58;;;26.24;16.72
49915;BME280;35806;47.958;13.158;2023-04-22T13:04:21;94133.37;;;26.70;16.13
49915;BME280;35806;47.958;13.158;2023-04-22T13:06:49;94132.66;;;26.55;18.25
49915;BME280;35806;47.958;13.158;2023-04-22T13:09:16;94129.53;;;26.07;16.88
49915;BME280;35806;47.958;13.158;2023-04-22T13:11:43;94124.68;;;26.09;17.69
49915;BME280;35806;47.958;13.158;2023-04-22T13:14:11;94121.81;;;26.17;14.92